sensor_id;sensor_type;location;lat;lon;timestamp;P1;durP1;ratioP1;P2;durP2;ratioP2
23594;SDS011;11975;47.674;9.472;2023-05-07T00:00:05;23.65;;;22.25;;
23594;SDS011;11975;47.674;9.472;2023-05-07T00:02:33;23.73;;;22.42;;
23594;SDS011;11975;47.674;9.472;2023-05-07T00:04:59;25.17;;;23.58;;
23594;SDS011;11975;47.674;9.472;2023-05-07T00:07:25;24.13;;;22.73;;
23594;SDS011;11975;47.674;9.472;2023-05-07T00:09:51;23.83;;;22.42;;
23594;SDS011;11975;47.674;9.472;2023-05-07T00:12:17;23.63;;;22.33;;
23594;SDS011;11975;47.674;9.472;2023-05-07T00:14:43;23.63;;;22.33;;
23594;SDS011;11975;47.674;9.472;2023-05-07T00:17:09;24.00;;;22.67;;
23594;SDS011;11975;47.674;9.472;2023-05-07T00:19:35;24.23;;;22.83;;
23594;SDS011;11975;47.674;9.472;2023-05-07T00:22:01;24.45;;;23.00;;
23594;SDS011;11975;47.674;9.472;2023-05-07T00:24:27;24.27;;;22.85;;
23594;SDS011;11975;47.674;9.472;2023-05-07T00:26:53;24.10;;;22.70;;
23594;SDS011;11975;47.674;9.472;2023-05-07T00:29:19;23.65;;;22.35;;
23594;SDS011;11975;47.674;9.472;2023-05-07T00:31:45;24.47;;;23.07;;
23594;SDS011;11975;47.674;9.472;2023-05-07T00:34:11;24.27;;;22.88;;
23594;SDS011;11975;47.674;9.472;2023-05-07T00:36:37;23.63;;;22.25;;
23594;SDS011;11975;47.674;9.472;2023-05-07T00:39:03;24.80;;;23.20;;
23594;SDS011;11975;47.674;9.472;2023-05-07T00:41:29;24.00;;;22.60;;
23594;SDS011;11975;47.674;9.472;2023-05-07T00:43:56;24.52;;;23.08;;
23594;SDS011;11975;47.674;9.472;2023-05-07T00:46:22;24.50;;;23.10;;
23594;SDS011;11975;47.674;9.472;2023-05-07T00:48:49;23.85;;;22.50;;
23594;SDS011;11975;47.674;9.472;2023-05-07T00:51:15;24.67;;;23.20;;
23594;SDS011;11975;47.674;9.472;2023-05-07T00:53:42;24.10;;;22.70;;
23594;SDS011;11975;47.674;9.472;2023-05-07T00:56:08;23.08;;;21.77;;
23594;SDS011;11975;47.674;9.472;2023-05-07T00:58:34;24.48;;;23.08;;
23594;SDS011;11975;47.674;9.472;2023-05-07T01:01:00;23.52;;;22.23;;
23594;SDS011;11975;47.674;9.472;2023-05-07T01:03:26;23.70;;;22.40;;
23594;SDS011;11975;47.674;9.472;2023-05-07T01:05:52;22.80;;;21.50;;
23594;SDS011;11975;47.674;9.472;2023-05-07T01:08:19;23.25;;;21.95;;
23594;SDS011;11975;47.674;9.472;2023-05-07T01:10:45;23.98;;;22.63;;
23594;SDS011;11975;47.674;9.472;2023-05-07T01:13:12;23.05;;;21.75;;
23594;SDS011;11975;47.674;9.472;2023-05-07T01:15:38;23.77;;;22.23;;
23594;SDS011;11975;47.674;9.472;2023-05-07T01:18:06;23.52;;;22.17;;
23594;SDS011;11975;47.674;9.472;2023-05-07T01:20:32;23.00;;;21.70;;
23594;SDS011;11975;47.674;9.472;2023-05-07T01:22:58;22.70;;;21.40;;
23594;SDS011;11975;47.674;9.472;2023-05-07T01:27:51;23.47;;;22.17;;
23594;SDS011;11975;47.674;9.472;2023-05-07T01:30:18;23.30;;;21.90;;
23594;SDS011;11975;47.674;9.472;2023-05-07T01:32:48;23.35;;;22.05;;
23594;SDS011;11975;47.674;9.472;2023-05-07T01:35:21;23.38;;;22.08;;
23594;SDS011;11975;47.674;9.472;2023-05-07T01:37:50;22.85;;;21.55;;
23594;SDS011;11975;47.674;9.472;2023-05-07T01:40:16;22.95;;;21.65;;
23594;SDS011;11975;47.674;9.472;2023-05-07T01:42:43;23.15;;;21.85;;
23594;SDS011;11975;47.674;9.472;2023-05-07T01:45:09;23.13;;;21.83;;
23594;SDS011;11975;47.674;9.472;2023-05-07T01:47:38;23.13;;;21.83;;
23594;SDS011;11975;47.674;9.472;2023-05-07T01:50:08;23.02;;;21.70;;
23594;SDS011;11975;47.674;9.472;2023-05-07T01:52:36;22.23;;;21.02;;
23594;SDS011;11975;47.674;9.472;2023-05-07T01:55:03;23.98;;;22.48;;
23594;SDS011;11975;47.674;9.472;2023-05-07T01:57:30;23.00;;;21.70;;
23594;SDS011;11975;47.674;9.472;2023-05-07T01:59:56;23.30;;;21.75;;
23594;SDS011;11975;47.674;9.472;2023-05-07T02:02:22;24.05;;;22.65;;
23594;SDS011;11975;47.674;9.472;2023-05-07T02:04:48;22.73;;;21.40;;
23594;SDS011;11975;47.674;9.472;2023-05-07T02:07:14;22.73;;;21.42;;
23594;SDS011;11975;47.674;9.472;2023-05-07T02:09:40;23.30;;;22.00;;
23594;SDS011;11975;47.674;9.472;2023-05-07T02:12:05;23.48;;;22.17;;
23594;SDS011;11975;47.674;9.472;2023-05-07T02:14:31;23.30;;;21.98;;
23594;SDS011;11975;47.674;9.472;2023-05-07T02:16:57;22.83;;;21.52;;
23594;SDS011;11975;47.674;9.472;2023-05-07T02:19:23;22.55;;;21.25;;
23594;SDS011;11975;47.674;9.472;2023-05-07T02:21:49;22.45;;;21.15;;
23594;SDS011;11975;47.674;9.472;2023-05-07T02:24:16;23.90;;;22.33;;
23594;SDS011;11975;47.674;9.472;2023-05-07T02:26:42;22.77;;;21.48;;
23594;SDS011;11975;47.674;9.472;2023-05-07T02:29:08;22.45;;;21.15;;
23594;SDS011;11975;47.674;9.472;2023-05-07T02:31:34;22.60;;;21.30;;
23594;SDS011;11975;47.674;9.472;2023-05-07T02:34:00;23.00;;;21.67;;
23594;SDS011;11975;47.674;9.472;2023-05-07T02:36:26;22.65;;;21.38;;
23594;SDS011;11975;47.674;9.472;2023-05-07T02:38:52;22.90;;;21.50;;
23594;SDS011;11975;47.674;9.472;2023-05-07T02:41:19;22.88;;;21.58;;
23594;SDS011;11975;47.674;9.472;2023-05-07T02:43:46;24.02;;;22.45;;
23594;SDS011;11975;47.674;9.472;2023-05-07T02:46:12;22.98;;;21.67;;
23594;SDS011;11975;47.674;9.472;2023-05-07T02:48:38;22.63;;;21.33;;
23594;SDS011;11975;47.674;9.472;2023-05-07T02:51:04;23.15;;;21.85;;
23594;SDS011;11975;47.674;9.472;2023-05-07T02:53:31;22.48;;;21.23;;
23594;SDS011;11975;47.674;9.472;2023-05-07T02:55:57;22.80;;;21.50;;
23594;SDS011;11975;47.674;9.472;2023-05-07T02:58:24;23.23;;;21.92;;
23594;SDS011;11975;47.674;9.472;2023-05-07T03:00:50;22.83;;;21.52;;
23594;SDS011;11975;47.674;9.472;2023-05-07T03:03:16;23.17;;;21.88;;
23594;SDS011;11975;47.674;9.472;2023-05-07T03:05:42;23.73;;;22.33;;
23594;SDS011;11975;47.674;9.472;2023-05-07T03:08:08;23.65;;;22.25;;
23594;SDS011;11975;47.674;9.472;2023-05-07T03:10:35;24.13;;;22.73;;
23594;SDS011;11975;47.674;9.472;2023-05-07T03:13:01;22.85;;;21.55;;
23594;SDS011;11975;47.674;9.472;2023-05-07T03:15:28;23.05;;;21.75;;
23594;SDS011;11975;47.674;9.472;2023-05-07T03:17:54;22.40;;;21.20;;
23594;SDS011;11975;47.674;9.472;2023-05-07T03:20:20;23.63;;;22.13;;
23594;SDS011;11975;47.674;9.472;2023-05-07T03:22:46;22.55;;;21.30;;
23594;SDS011;11975;47.674;9.472;2023-05-07T03:25:12;23.42;;;22.13;;
23594;SDS011;11975;47.674;9.472;2023-05-07T03:30:05;22.65;;;21.35;;
23594;SDS011;11975;47.674;9.472;2023-05-07T03:32:32;23.02;;;21.73;;
23594;SDS011;11975;47.674;9.472;2023-05-07T03:34:58;23.70;;;22.10;;
23594;SDS011;11975;47.674;9.472;2023-05-07T03:37:24;22.83;;;21.55;;
23594;SDS011;11975;47.674;9.472;2023-05-07T03:39:50;22.27;;;21.02;;
23594;SDS011;11975;47.674;9.472;2023-05-07T03:42:16;22.80;;;21.50;;
23594;SDS011;11975;47.674;9.472;2023-05-07T03:44:42;22.30;;;21.08;;
23594;SDS011;11975;47.674;9.472;2023-05-07T03:47:07;22.00;;;20.80;;
23594;SDS011;11975;47.674;9.472;2023-05-07T03:49:33;21.67;;;20.48;;
23594;SDS011;11975;47.674;9.472;2023-05-07T03:51:59;22.70;;;21.42;;
23594;SDS011;11975;47.674;9.472;2023-05-07T03:54:25;22.92;;;21.63;;
23594;SDS011;11975;47.674;9.472;2023-05-07T03:56:51;22.58;;;21.30;;
23594;SDS011;11975;47.674;9.472;2023-05-07T03:59:17;22.98;;;21.67;;
23594;SDS011;11975;47.674;9.472;2023-05-07T04:01:43;22.63;;;21.35;;
23594;SDS011;11975;47.674;9.472;2023-05-07T04:04:09;21.90;;;20.70;;
23594;SDS011;11975;47.674;9.472;2023-05-07T04:06:35;22.77;;;21.48;;
23594;SDS011;11975;47.674;9.472;2023-05-07T04:09:01;21.85;;;20.65;;
23594;SDS011;11975;47.674;9.472;2023-05-07T04:11:27;22.17;;;20.98;;
23594;SDS011;11975;47.674;9.472;2023-05-07T04:13:53;22.77;;;21.48;;
23594;SDS011;11975;47.674;9.472;2023-05-07T04:16:19;22.40;;;21.15;;
23594;SDS011;11975;47.674;9.472;2023-05-07T04:18:45;22.48;;;21.25;;
23594;SDS011;11975;47.674;9.472;2023-05-07T04:21:17;22.60;;;21.30;;
23594;SDS011;11975;47.674;9.472;2023-05-07T04:23:45;22.92;;;21.63;;
23594;SDS011;11975;47.674;9.472;2023-05-07T04:26:11;23.17;;;21.88;;
23594;SDS011;11975;47.674;9.472;2023-05-07T04:28:38;22.90;;;21.60;;
23594;SDS011;11975;47.674;9.472;2023-05-07T04:31:04;23.05;;;21.75;;
23594;SDS011;11975;47.674;9.472;2023-05-07T04:33:31;22.55;;;21.30;;
23594;SDS011;11975;47.674;9.472;2023-05-07T04:35:57;22.42;;;21.17;;
23594;SDS011;11975;47.674;9.472;2023-05-07T04:38:28;23.27;;;21.88;;
23594;SDS011;11975;47.674;9.472;2023-05-07T04:40:55;23.35;;;22.05;;
23594;SDS011;11975;47.674;9.472;2023-05-07T04:43:22;24.20;;;22.80;;
23594;SDS011;11975;47.674;9.472;2023-05-07T04:45:49;24.00;;;22.70;;
23594;SDS011;11975;47.674;9.472;2023-05-07T04:48:18;23.90;;;22.60;;
23594;SDS011;11975;47.674;9.472;2023-05-07T04:50:49;23.23;;;21.92;;
23594;SDS011;11975;47.674;9.472;2023-05-07T04:53:16;22.15;;;20.95;;
23594;SDS011;11975;47.674;9.472;2023-05-07T04:55:42;22.85;;;21.55;;
23594;SDS011;11975;47.674;9.472;2023-05-07T04:58:08;23.48;;;22.17;;
23594;SDS011;11975;47.674;9.472;2023-05-07T05:00:34;24.10;;;22.73;;
23594;SDS011;11975;47.674;9.472;2023-05-07T05:03:00;23.73;;;22.42;;
23594;SDS011;11975;47.674;9.472;2023-05-07T05:05:26;23.75;;;22.40;;
23594;SDS011;11975;47.674;9.472;2023-05-07T05:07:52;23.15;;;21.85;;
23594;SDS011;11975;47.674;9.472;2023-05-07T05:10:18;22.98;;;21.67;;
23594;SDS011;11975;47.674;9.472;2023-05-07T05:12:44;23.17;;;21.88;;
23594;SDS011;11975;47.674;9.472;2023-05-07T05:15:11;23.17;;;21.88;;
23594;SDS011;11975;47.674;9.472;2023-05-07T05:17:38;22.98;;;21.67;;
23594;SDS011;11975;47.674;9.472;2023-05-07T05:20:04;21.92;;;20.73;;
23594;SDS011;11975;47.674;9.472;2023-05-07T05:22:31;23.35;;;22.05;;
23594;SDS011;11975;47.674;9.472;2023-05-07T05:24:57;23.33;;;22.02;;
23594;SDS011;11975;47.674;9.472;2023-05-07T05:27:23;23.25;;;21.95;;
23594;SDS011;11975;47.674;9.472;2023-05-07T05:29:49;23.27;;;21.98;;
23594;SDS011;11975;47.674;9.472;2023-05-07T05:32:15;22.92;;;21.63;;
23594;SDS011;11975;47.674;9.472;2023-05-07T05:34:41;22.13;;;20.90;;
23594;SDS011;11975;47.674;9.472;2023-05-07T05:37:07;22.40;;;21.10;;
23594;SDS011;11975;47.674;9.472;2023-05-07T05:39:33;22.35;;;21.08;;
23594;SDS011;11975;47.674;9.472;2023-05-07T05:41:59;22.10;;;20.90;;
23594;SDS011;11975;47.674;9.472;2023-05-07T05:44:25;22.02;;;20.83;;
23594;SDS011;11975;47.674;9.472;2023-05-07T05:46:51;21.52;;;20.33;;
23594;SDS011;11975;47.674;9.472;2023-05-07T05:49:17;20.88;;;19.67;;
23594;SDS011;11975;47.674;9.472;2023-05-07T05:51:43;20.48;;;19.27;;
23594;SDS011;11975;47.674;9.472;2023-05-07T05:54:09;20.38;;;19.27;;
23594;SDS011;11975;47.674;9.472;2023-05-07T05:56:36;19.40;;;18.30;;
23594;SDS011;11975;47.674;9.472;2023-05-07T05:59:02;20.38;;;19.23;;
23594;SDS011;11975;47.674;9.472;2023-05-07T06:01:28;19.70;;;18.60;;
23594;SDS011;11975;47.674;9.472;2023-05-07T06:03:54;19.80;;;18.70;;
23594;SDS011;11975;47.674;9.472;2023-05-07T06:06:19;20.52;;;19.33;;
23594;SDS011;11975;47.674;9.472;2023-05-07T06:08:45;19.90;;;18.70;;
23594;SDS011;11975;47.674;9.472;2023-05-07T06:11:11;19.80;;;18.70;;
23594;SDS011;11975;47.674;9.472;2023-05-07T06:13:37;19.85;;;18.75;;
23594;SDS011;11975;47.674;9.472;2023-05-07T06:16:03;20.00;;;18.90;;
23594;SDS011;11975;47.674;9.472;2023-05-07T06:18:30;19.67;;;18.57;;
23594;SDS011;11975;47.674;9.472;2023-05-07T06:20:55;19.60;;;18.50;;
23594;SDS011;11975;47.674;9.472;2023-05-07T06:23:21;19.40;;;18.30;;
23594;SDS011;11975;47.674;9.472;2023-05-07T06:25:48;19.57;;;18.47;;
23594;SDS011;11975;47.674;9.472;2023-05-07T06:28:15;19.67;;;18.58;;
23594;SDS011;11975;47.674;9.472;2023-05-07T06:30:41;19.63;;;18.52;;
23594;SDS011;11975;47.674;9.472;2023-05-07T06:33:07;20.00;;;18.90;;
23594;SDS011;11975;47.674;9.472;2023-05-07T06:35:33;20.23;;;19.13;;
23594;SDS011;11975;47.674;9.472;2023-05-07T06:37:59;19.93;;;18.83;;
23594;SDS011;11975;47.674;9.472;2023-05-07T06:40:26;19.23;;;18.13;;
23594;SDS011;11975;47.674;9.472;2023-05-07T06:42:52;18.92;;;17.92;;
23594;SDS011;11975;47.674;9.472;2023-05-07T06:45:19;19.35;;;18.25;;
23594;SDS011;11975;47.674;9.472;2023-05-07T06:47:45;19.80;;;18.60;;
23594;SDS011;11975;47.674;9.472;2023-05-07T06:50:11;19.27;;;18.17;;
23594;SDS011;11975;47.674;9.472;2023-05-07T06:52:37;18.95;;;17.85;;
23594;SDS011;11975;47.674;9.472;2023-05-07T06:55:03;19.58;;;18.48;;
23594;SDS011;11975;47.674;9.472;2023-05-07T06:57:30;18.92;;;17.85;;
23594;SDS011;11975;47.674;9.472;2023-05-07T06:59:56;18.70;;;17.70;;
23594;SDS011;11975;47.674;9.472;2023-05-07T07:02:21;18.60;;;17.60;;
23594;SDS011;11975;47.674;9.472;2023-05-07T07:04:47;18.40;;;17.40;;
23594;SDS011;11975;47.674;9.472;2023-05-07T07:07:13;19.30;;;18.00;;
23594;SDS011;11975;47.674;9.472;2023-05-07T07:09:39;18.90;;;17.80;;
23594;SDS011;11975;47.674;9.472;2023-05-07T07:12:05;18.75;;;17.70;;
23594;SDS011;11975;47.674;9.472;2023-05-07T07:14:31;19.20;;;18.10;;
23594;SDS011;11975;47.674;9.472;2023-05-07T07:16:57;19.45;;;18.35;;
23594;SDS011;11975;47.674;9.472;2023-05-07T07:19:23;18.60;;;17.60;;
23594;SDS011;11975;47.674;9.472;2023-05-07T07:21:49;18.60;;;17.60;;
23594;SDS011;11975;47.674;9.472;2023-05-07T07:24:15;18.80;;;17.80;;
23594;SDS011;11975;47.674;9.472;2023-05-07T07:26:44;18.80;;;17.80;;
23594;SDS011;11975;47.674;9.472;2023-05-07T07:29:10;18.48;;;17.48;;
23594;SDS011;11975;47.674;9.472;2023-05-07T07:31:36;18.60;;;17.60;;
23594;SDS011;11975;47.674;9.472;2023-05-07T07:34:02;18.67;;;17.58;;
23594;SDS011;11975;47.674;9.472;2023-05-07T07:36:28;18.25;;;17.25;;
23594;SDS011;11975;47.674;9.472;2023-05-07T07:38:54;17.83;;;16.83;;
23594;SDS011;11975;47.674;9.472;2023-05-07T07:41:20;18.35;;;17.35;;
23594;SDS011;11975;47.674;9.472;2023-05-07T07:43:46;17.83;;;16.83;;
23594;SDS011;11975;47.674;9.472;2023-05-07T07:46:12;18.00;;;17.00;;
23594;SDS011;11975;47.674;9.472;2023-05-07T07:48:38;17.77;;;16.77;;
23594;SDS011;11975;47.674;9.472;2023-05-07T07:51:04;17.67;;;16.63;;
23594;SDS011;11975;47.674;9.472;2023-05-07T07:53:31;16.93;;;16.03;;
23594;SDS011;11975;47.674;9.472;2023-05-07T07:55:56;17.42;;;16.42;;
23594;SDS011;11975;47.674;9.472;2023-05-07T07:58:22;16.65;;;15.73;;
23594;SDS011;11975;47.674;9.472;2023-05-07T08:00:50;17.70;;;16.70;;
23594;SDS011;11975;47.674;9.472;2023-05-07T08:03:16;17.23;;;16.23;;
23594;SDS011;11975;47.674;9.472;2023-05-07T08:05:42;17.87;;;16.87;;
23594;SDS011;11975;47.674;9.472;2023-05-07T08:08:08;17.42;;;16.42;;
23594;SDS011;11975;47.674;9.472;2023-05-07T08:10:35;17.48;;;16.48;;
23594;SDS011;11975;47.674;9.472;2023-05-07T08:13:03;17.80;;;16.70;;
23594;SDS011;11975;47.674;9.472;2023-05-07T08:15:30;18.77;;;17.67;;
23594;SDS011;11975;47.674;9.472;2023-05-07T08:17:56;18.03;;;17.03;;
23594;SDS011;11975;47.674;9.472;2023-05-07T08:20:25;18.20;;;17.15;;
23594;SDS011;11975;47.674;9.472;2023-05-07T08:22:51;17.93;;;16.93;;
23594;SDS011;11975;47.674;9.472;2023-05-07T08:25:17;18.30;;;17.15;;
23594;SDS011;11975;47.674;9.472;2023-05-07T08:27:43;17.87;;;16.87;;
23594;SDS011;11975;47.674;9.472;2023-05-07T08:30:10;17.15;;;16.25;;
23594;SDS011;11975;47.674;9.472;2023-05-07T08:32:37;17.35;;;16.38;;
23594;SDS011;11975;47.674;9.472;2023-05-07T08:35:02;17.07;;;16.17;;
23594;SDS011;11975;47.674;9.472;2023-05-07T08:37:29;17.67;;;16.67;;
23594;SDS011;11975;47.674;9.472;2023-05-07T08:39:55;17.42;;;16.42;;
23594;SDS011;11975;47.674;9.472;2023-05-07T08:42:20;17.37;;;16.37;;
23594;SDS011;11975;47.674;9.472;2023-05-07T08:44:49;17.15;;;16.25;;
23594;SDS011;11975;47.674;9.472;2023-05-07T08:47:18;17.58;;;16.58;;
23594;SDS011;11975;47.674;9.472;2023-05-07T08:49:45;17.23;;;16.23;;
23594;SDS011;11975;47.674;9.472;2023-05-07T08:52:11;17.53;;;16.53;;
23594;SDS011;11975;47.674;9.472;2023-05-07T08:57:04;16.65;;;15.75;;
23594;SDS011;11975;47.674;9.472;2023-05-07T08:59:30;17.00;;;16.10;;
23594;SDS011;11975;47.674;9.472;2023-05-07T09:01:56;17.60;;;16.60;;
23594;SDS011;11975;47.674;9.472;2023-05-07T09:04:22;17.30;;;16.33;;
23594;SDS011;11975;47.674;9.472;2023-05-07T09:06:48;16.70;;;15.80;;
23594;SDS011;11975;47.674;9.472;2023-05-07T09:09:16;16.80;;;15.90;;
23594;SDS011;11975;47.674;9.472;2023-05-07T09:11:45;17.48;;;16.38;;
23594;SDS011;11975;47.674;9.472;2023-05-07T09:14:11;17.33;;;16.23;;
23594;SDS011;11975;47.674;9.472;2023-05-07T09:16:37;17.17;;;16.17;;
23594;SDS011;11975;47.674;9.472;2023-05-07T09:19:03;16.13;;;15.23;;
23594;SDS011;11975;47.674;9.472;2023-05-07T09:21:29;16.47;;;15.57;;
23594;SDS011;11975;47.674;9.472;2023-05-07T09:23:55;16.25;;;15.35;;
23594;SDS011;11975;47.674;9.472;2023-05-07T09:26:22;16.87;;;15.97;;
23594;SDS011;11975;47.674;9.472;2023-05-07T09:28:48;16.77;;;15.82;;
23594;SDS011;11975;47.674;9.472;2023-05-07T09:31:14;16.73;;;15.83;;
23594;SDS011;11975;47.674;9.472;2023-05-07T09:33:40;16.27;;;15.37;;
23594;SDS011;11975;47.674;9.472;2023-05-07T09:36:07;16.87;;;15.97;;
23594;SDS011;11975;47.674;9.472;2023-05-07T09:38:34;16.88;;;15.98;;
23594;SDS011;11975;47.674;9.472;2023-05-07T09:43:34;17.17;;;16.27;;
23594;SDS011;11975;47.674;9.472;2023-05-07T09:46:07;16.58;;;15.68;;
23594;SDS011;11975;47.674;9.472;2023-05-07T09:48:41;16.92;;;16.02;;
23594;SDS011;11975;47.674;9.472;2023-05-07T09:53:52;16.90;;;15.90;;
23594;SDS011;11975;47.674;9.472;2023-05-07T09:56:19;17.10;;;16.20;;
23594;SDS011;11975;47.674;9.472;2023-05-07T09:58:45;17.38;;;16.38;;
23594;SDS011;11975;47.674;9.472;2023-05-07T10:01:12;17.15;;;16.15;;
23594;SDS011;11975;47.674;9.472;2023-05-07T10:03:39;16.42;;;15.52;;
23594;SDS011;11975;47.674;9.472;2023-05-07T10:06:06;16.25;;;15.35;;
23594;SDS011;11975;47.674;9.472;2023-05-07T10:08:34;16.75;;;15.85;;
23594;SDS011;11975;47.674;9.472;2023-05-07T10:13:27;17.35;;;16.38;;
23594;SDS011;11975;47.674;9.472;2023-05-07T10:15:53;16.67;;;15.77;;
23594;SDS011;11975;47.674;9.472;2023-05-07T10:18:19;16.83;;;15.82;;
23594;SDS011;11975;47.674;9.472;2023-05-07T10:20:48;16.77;;;15.88;;
23594;SDS011;11975;47.674;9.472;2023-05-07T10:23:16;15.68;;;14.82;;
23594;SDS011;11975;47.674;9.472;2023-05-07T10:25:45;16.70;;;15.80;;
23594;SDS011;11975;47.674;9.472;2023-05-07T10:28:11;17.02;;;16.13;;
23594;SDS011;11975;47.674;9.472;2023-05-07T10:33:19;17.13;;;16.15;;
23594;SDS011;11975;47.674;9.472;2023-05-07T10:35:48;16.55;;;15.60;;
23594;SDS011;11975;47.674;9.472;2023-05-07T10:38:15;17.17;;;16.17;;
23594;SDS011;11975;47.674;9.472;2023-05-07T10:40:41;16.80;;;15.83;;
23594;SDS011;11975;47.674;9.472;2023-05-07T10:43:07;16.90;;;16.00;;
23594;SDS011;11975;47.674;9.472;2023-05-07T10:45:34;16.20;;;15.30;;
23594;SDS011;11975;47.674;9.472;2023-05-07T10:48:15;16.37;;;15.47;;
23594;SDS011;11975;47.674;9.472;2023-05-07T10:50:42;16.60;;;15.70;;
23594;SDS011;11975;47.674;9.472;2023-05-07T10:55:44;17.55;;;16.55;;
23594;SDS011;11975;47.674;9.472;2023-05-07T10:58:31;16.90;;;15.90;;
23594;SDS011;11975;47.674;9.472;2023-05-07T11:03:23;16.33;;;15.43;;
23594;SDS011;11975;47.674;9.472;2023-05-07T11:11:18;16.58;;;15.68;;
23594;SDS011;11975;47.674;9.472;2023-05-07T11:13:47;16.85;;;15.75;;
23594;SDS011;11975;47.674;9.472;2023-05-07T11:18:50;17.10;;;16.20;;
23594;SDS011;11975;47.674;9.472;2023-05-07T11:21:33;16.55;;;15.65;;
23594;SDS011;11975;47.674;9.472;2023-05-07T11:24:00;16.85;;;15.85;;
23594;SDS011;11975;47.674;9.472;2023-05-07T11:26:28;16.23;;;15.32;;
23594;SDS011;11975;47.674;9.472;2023-05-07T11:28:55;16.52;;;15.63;;
23594;SDS011;11975;47.674;9.472;2023-05-07T11:31:23;17.65;;;16.65;;
23594;SDS011;11975;47.674;9.472;2023-05-07T11:33:51;16.50;;;15.60;;
23594;SDS011;11975;47.674;9.472;2023-05-07T11:36:18;16.38;;;15.48;;
23594;SDS011;11975;47.674;9.472;2023-05-07T11:38:45;17.00;;;16.10;;
23594;SDS011;11975;47.674;9.472;2023-05-07T11:41:11;17.10;;;16.13;;
23594;SDS011;11975;47.674;9.472;2023-05-07T11:43:37;16.40;;;15.50;;
23594;SDS011;11975;47.674;9.472;2023-05-07T11:46:09;16.65;;;15.75;;
23594;SDS011;11975;47.674;9.472;2023-05-07T11:48:35;17.13;;;16.13;;
23594;SDS011;11975;47.674;9.472;2023-05-07T11:51:02;16.38;;;15.48;;
23594;SDS011;11975;47.674;9.472;2023-05-07T11:53:35;16.70;;;15.80;;
23594;SDS011;11975;47.674;9.472;2023-05-07T11:56:06;16.33;;;15.40;;
23594;SDS011;11975;47.674;9.472;2023-05-07T11:58:42;16.73;;;15.82;;
23594;SDS011;11975;47.674;9.472;2023-05-07T12:01:10;16.90;;;15.90;;
23594;SDS011;11975;47.674;9.472;2023-05-07T12:03:37;16.50;;;15.60;;
23594;SDS011;11975;47.674;9.472;2023-05-07T12:06:06;16.33;;;15.40;;
23594;SDS011;11975;47.674;9.472;2023-05-07T12:08:32;17.20;;;16.23;;
23594;SDS011;11975;47.674;9.472;2023-05-07T12:10:58;16.13;;;15.23;;
23594;SDS011;11975;47.674;9.472;2023-05-07T12:13:25;16.90;;;15.90;;
23594;SDS011;11975;47.674;9.472;2023-05-07T12:15:52;16.63;;;15.73;;
23594;SDS011;11975;47.674;9.472;2023-05-07T12:18:18;16.30;;;15.40;;
23594;SDS011;11975;47.674;9.472;2023-05-07T12:23:12;16.70;;;15.80;;
23594;SDS011;11975;47.674;9.472;2023-05-07T12:25:38;16.70;;;15.80;;
23594;SDS011;11975;47.674;9.472;2023-05-07T12:28:07;16.98;;;16.08;;
23594;SDS011;11975;47.674;9.472;2023-05-07T12:30:39;17.00;;;16.10;;
23594;SDS011;11975;47.674;9.472;2023-05-07T12:33:05;16.70;;;15.73;;
23594;SDS011;11975;47.674;9.472;2023-05-07T12:35:32;16.70;;;15.80;;
23594;SDS011;11975;47.674;9.472;2023-05-07T12:38:02;17.50;;;16.50;;
23594;SDS011;11975;47.674;9.472;2023-05-07T12:43:02;17.10;;;16.10;;
23594;SDS011;11975;47.674;9.472;2023-05-07T12:45:28;16.93;;;16.03;;
23594;SDS011;11975;47.674;9.472;2023-05-07T12:47:54;16.83;;;15.90;;
23594;SDS011;11975;47.674;9.472;2023-05-07T12:50:20;16.77;;;15.87;;
23594;SDS011;11975;47.674;9.472;2023-05-07T12:52:49;16.27;;;15.38;;
23594;SDS011;11975;47.674;9.472;2023-05-07T12:55:15;17.63;;;16.60;;
23594;SDS011;11975;47.674;9.472;2023-05-07T12:57:43;16.55;;;15.65;;
23594;SDS011;11975;47.674;9.472;2023-05-07T13:00:13;16.70;;;15.80;;
23594;SDS011;11975;47.674;9.472;2023-05-07T13:02:40;16.73;;;15.82;;
23594;SDS011;11975;47.674;9.472;2023-05-07T13:05:09;17.10;;;16.20;;
23594;SDS011;11975;47.674;9.472;2023-05-07T13:07:35;17.30;;;16.30;;
23594;SDS011;11975;47.674;9.472;2023-05-07T13:10:02;17.27;;;16.17;;
23594;SDS011;11975;47.674;9.472;2023-05-07T13:14:55;16.83;;;15.93;;
23594;SDS011;11975;47.674;9.472;2023-05-07T13:17:20;17.00;;;16.07;;
23594;SDS011;11975;47.674;9.472;2023-05-07T13:19:46;16.70;;;15.80;;
23594;SDS011;11975;47.674;9.472;2023-05-07T13:22:12;16.33;;;15.43;;
23594;SDS011;11975;47.674;9.472;2023-05-07T13:24:38;16.87;;;15.97;;
23594;SDS011;11975;47.674;9.472;2023-05-07T13:27:07;16.75;;;15.85;;
23594;SDS011;11975;47.674;9.472;2023-05-07T13:29:33;17.00;;;16.00;;
23594;SDS011;11975;47.674;9.472;2023-05-07T13:31:59;16.10;;;15.20;;
23594;SDS011;11975;47.674;9.472;2023-05-07T13:34:25;16.48;;;15.57;;
23594;SDS011;11975;47.674;9.472;2023-05-07T13:36:52;16.73;;;15.83;;
23594;SDS011;11975;47.674;9.472;2023-05-07T13:41:43;16.80;;;15.90;;
23594;SDS011;11975;47.674;9.472;2023-05-07T13:44:09;17.13;;;16.23;;
23594;SDS011;11975;47.674;9.472;2023-05-07T13:46:35;16.90;;;16.00;;
23594;SDS011;11975;47.674;9.472;2023-05-07T13:49:01;16.30;;;15.40;;
23594;SDS011;11975;47.674;9.472;2023-05-07T13:51:27;16.40;;;15.50;;
23594;SDS011;11975;47.674;9.472;2023-05-07T13:53:53;17.27;;;16.33;;
23594;SDS011;11975;47.674;9.472;2023-05-07T13:56:19;16.00;;;15.10;;
23594;SDS011;11975;47.674;9.472;2023-05-07T14:01:12;16.45;;;15.52;;
23594;SDS011;11975;47.674;9.472;2023-05-07T14:03:38;16.00;;;15.10;;
23594;SDS011;11975;47.674;9.472;2023-05-07T14:06:05;17.38;;;16.38;;
23594;SDS011;11975;47.674;9.472;2023-05-07T14:08:31;17.20;;;16.20;;
23594;SDS011;11975;47.674;9.472;2023-05-07T14:10:57;16.70;;;15.80;;
23594;SDS011;11975;47.674;9.472;2023-05-07T14:13:23;17.57;;;16.57;;
23594;SDS011;11975;47.674;9.472;2023-05-07T14:15:49;17.33;;;16.35;;
23594;SDS011;11975;47.674;9.472;2023-05-07T14:18:17;18.05;;;17.05;;
23594;SDS011;11975;47.674;9.472;2023-05-07T14:20:43;17.65;;;16.65;;
23594;SDS011;11975;47.674;9.472;2023-05-07T14:23:12;17.27;;;16.38;;
23594;SDS011;11975;47.674;9.472;2023-05-07T14:25:38;17.47;;;16.47;;
23594;SDS011;11975;47.674;9.472;2023-05-07T14:28:04;17.80;;;16.80;;
23594;SDS011;11975;47.674;9.472;2023-05-07T14:30:30;17.17;;;16.27;;
23594;SDS011;11975;47.674;9.472;2023-05-07T14:32:56;17.53;;;16.53;;
23594;SDS011;11975;47.674;9.472;2023-05-07T14:35:22;17.93;;;16.93;;
23594;SDS011;11975;47.674;9.472;2023-05-07T14:37:48;17.17;;;16.27;;
23594;SDS011;11975;47.674;9.472;2023-05-07T14:40:13;17.20;;;16.30;;
23594;SDS011;11975;47.674;9.472;2023-05-07T14:42:40;17.50;;;16.52;;
23594;SDS011;11975;47.674;9.472;2023-05-07T14:45:06;17.20;;;16.30;;
23594;SDS011;11975;47.674;9.472;2023-05-07T14:47:32;17.85;;;16.85;;
23594;SDS011;11975;47.674;9.472;2023-05-07T14:49:58;17.10;;;16.20;;
23594;SDS011;11975;47.674;9.472;2023-05-07T14:52:26;17.40;;;16.40;;
23594;SDS011;11975;47.674;9.472;2023-05-07T14:54:52;17.27;;;16.38;;
23594;SDS011;11975;47.674;9.472;2023-05-07T14:57:18;17.60;;;16.60;;
23594;SDS011;11975;47.674;9.472;2023-05-07T14:59:44;16.80;;;15.90;;